Time;durP1;ratioP1;P1;durP2;ratioP2;P2;SDS_P1;SDS_P2;PMS_P1;PMS_P2;Temp;Humidity;BMP_temperature;BMP_pressure;BME280_temperature;BME280_humidity;BME280_pressure;Samples;Min_cycle;Max_cycle;Signal;HPM_P1;HPM_P2
2022/12/20 00:04:30;;;;;;;2.22;1.10;;;9.50;99.90;;;;;;20659738;28;20124;-40
2022/12/20 00:14:31;;;;;;;3.60;1.98;;;9.40;99.90;;;;;;20660469;28;20068;-40
2022/12/20 00:24:32;;;;;;;3.15;1.33;;;9.60;99.90;;;;;;20664741;28;20061;-40
2022/12/20 00:34:33;;;;;;;3.78;1.30;;;9.60;99.90;;;;;;20650632;28;20168;-40
2022/12/20 00:44:34;;;;;;;2.42;1.30;;;9.70;99.90;;;;;;20655542;28;20038;-40
2022/12/20 00:54:35;;;;;;;2.40;0.88;;;9.80;99.90;;;;;;20656830;28;20141;-40
2022/12/20 01:04:36;;;;;;;7.57;1.90;;;9.80;99.90;;;;;;20658636;28;20465;-40
2022/12/20 01:14:37;;;;;;;3.88;1.60;;;9.90;99.90;;;;;;20660949;28;20167;-40
2022/12/20 01:24:39;;;;;;;3.60;1.63;;;9.70;99.90;;;;;;20647625;28;20046;-40
2022/12/20 01:34:40;;;;;;;2.78;1.35;;;9.60;99.90;;;;;;20657690;28;20034;-40
2022/12/20 01:44:41;;;;;;;3.03;1.30;;;9.50;99.90;;;;;;20661757;28;20556;-40
2022/12/20 01:54:55;;;;;;;4.70;1.52;;;9.50;99.90;;;;;;20664988;28;20482;-40
2022/12/20 02:04:57;;;;;;;2.30;1.10;;;9.60;99.90;;;;;;20672623;28;20465;-40
2022/12/20 02:15:38;;;;;;;2.30;1.35;;;9.60;99.90;;;;;;20672929;28;20189;-40
2022/12/20 02:26:05;;;;;;;2.65;1.20;;;9.70;99.90;;;;;;20670473;28;20606;-40
2022/12/20 02:36:06;;;;;;;1.55;0.95;;;9.70;99.90;;;;;;20682097;28;22057;-40
2022/12/20 02:46:09;;;;;;;1.60;0.65;;;9.70;99.90;;;;;;20672267;28;20383;-40
2022/12/20 02:56:27;;;;;;;2.67;1.52;;;9.80;99.90;;;;;;20666677;28;20156;-40
2022/12/20 03:06:29;;;;;;;3.05;1.65;;;9.80;99.90;;;;;;20657390;28;20092;-39
2022/12/20 03:16:30;;;;;;;3.20;1.73;;;9.80;99.90;;;;;;20657866;28;20072;-40
2022/12/20 03:26:31;;;;;;;3.03;0.65;;;9.80;99.90;;;;;;20664584;28;20045;-39
2022/12/20 03:36:33;;;;;;;1.40;0.50;;;10.00;99.90;;;;;;20665242;28;20068;-40
2022/12/20 03:46:34;;;;;;;2.17;1.13;;;10.00;99.90;;;;;;20673648;28;20575;-40
2022/12/20 03:56:35;;;;;;;2.38;1.23;;;10.10;99.90;;;;;;20657877;28;20507;-40
2022/12/20 04:06:36;;;;;;;1.67;0.60;;;10.20;99.90;;;;;;20663531;28;20040;-40
2022/12/20 04:16:38;;;;;;;3.15;1.25;;;10.10;99.90;;;;;;20657445;28;20401;-40
2022/12/20 04:26:39;;;;;;;2.83;1.40;;;10.20;99.90;;;;;;20658417;28;20501;-40
2022/12/20 04:36:40;;;;;;;2.50;1.00;;;10.20;99.90;;;;;;20660375;28;20167;-40
2022/12/20 04:46:41;;;;;;;2.08;1.33;;;10.20;99.90;;;;;;20654087;28;20049;-40
2022/12/20 04:56:42;;;;;;;1.88;1.00;;;10.30;99.90;;;;;;20655813;28;20560;-40
2022/12/20 05:06:43;;;;;;;2.33;1.10;;;10.40;99.90;;;;;;20657380;28;20507;-40
2022/12/20 05:16:44;;;;;;;3.03;1.10;;;10.40;99.90;;;;;;20653262;28;20430;-40
2022/12/20 05:26:45;;;;;;;1.83;0.88;;;10.30;99.90;;;;;;20658565;28;20588;-40
2022/12/20 05:36:46;;;;;;;2.60;1.10;;;10.30;99.90;;;;;;20676046;28;20100;-40
2022/12/20 05:46:47;;;;;;;3.22;1.67;;;10.30;99.90;;;;;;20666680;28;20136;-40
2022/12/20 05:56:48;;;;;;;4.07;1.80;;;10.30;99.90;;;;;;20671681;28;20132;-40
2022/12/20 06:06:49;;;;;;;2.55;1.17;;;10.40;99.90;;;;;;20669218;28;20089;-40
2022/12/20 06:16:50;;;;;;;3.75;1.10;;;10.50;99.90;;;;;;20673868;28;20045;-40
2022/12/20 06:26:51;;;;;;;2.13;0.85;;;10.60;99.90;;;;;;20676168;28;20077;-40
2022/12/20 06:36:52;;;;;;;2.40;0.73;;;10.80;99.90;;;;;;20672370;28;20199;-40
2022/12/20 06:46:53;;;;;;;1.85;0.57;;;10.90;99.90;;;;;;20673294;28;20042;-40
2022/12/20 06:56:54;;;;;;;1.85;0.90;;;10.90;99.90;;;;;;20668579;28;20130;-40
2022/12/20 07:06:58;;;;;;;1.75;0.60;;;11.00;99.90;;;;;;20660345;28;20038;-40
2022/12/20 07:16:59;;;;;;;1.23;0.73;;;11.00;99.90;;;;;;20662565;28;20135;-40
2022/12/20 07:27:00;;;;;;;3.28;0.85;;;11.10;99.90;;;;;;20665292;28;20038;-40
2022/12/20 07:37:02;;;;;;;3.67;1.35;;;11.10;99.90;;;;;;20667023;28;21702;-40
2022/12/20 07:47:03;;;;;;;2.03;0.82;;;11.20;99.90;;;;;;20661046;28;20129;-40
2022/12/20 07:57:11;;;;;;;2.08;1.02;;;11.10;99.90;;;;;;20663138;28;20072;-40
2022/12/20 08:07:12;;;;;;;2.28;0.98;;;10.90;99.90;;;;;;20651495;28;20860;-39
2022/12/20 08:17:13;;;;;;;3.92;1.15;;;10.70;99.90;;;;;;20665073;28;20089;-40
2022/12/20 08:27:14;;;;;;;2.10;1.10;;;10.40;99.90;;;;;;20661333;28;20524;-39
2022/12/20 08:37:16;;;;;;;2.55;1.42;;;10.20;99.90;;;;;;20649338;28;20535;-40
2022/12/20 08:47:17;;;;;;;2.33;1.10;;;10.20;99.90;;;;;;20667972;28;20559;-40
2022/12/20 08:57:18;;;;;;;3.38;1.15;;;10.20;99.90;;;;;;20665438;28;20054;-40
2022/12/20 09:07:19;;;;;;;2.83;0.93;;;10.30;99.90;;;;;;20662433;28;20045;-40
2022/12/20 09:17:20;;;;;;;2.80;1.52;;;10.30;99.90;;;;;;20673377;28;20112;-39
2022/12/20 09:27:21;;;;;;;4.25;1.67;;;10.20;99.90;;;;;;20648924;28;20086;-39
2022/12/20 09:37:22;;;;;;;7.32;1.88;;;10.10;99.90;;;;;;20615269;28;20136;-39
2022/12/20 09:47:25;;;;;;;3.53;1.55;;;10.10;99.90;;;;;;20630230;28;20687;-39
2022/12/20 09:57:57;;;;;;;3.70;1.33;;;10.00;99.90;;;;;;20629243;28;20340;-39
2022/12/20 10:08:08;;;;;;;3.50;1.23;;;10.00;99.90;;;;;;20644543;28;20352;-39
2022/12/20 10:18:37;;;;;;;2.45;1.23;;;10.10;99.90;;;;;;20640881;28;20107;-39
2022/12/20 10:28:39;;;;;;;4.07;1.35;;;10.20;99.90;;;;;;20670596;28;20649;-39
2022/12/20 10:38:46;;;;;;;2.83;1.45;;;10.20;99.90;;;;;;20661310;28;20074;-39
2022/12/20 10:48:48;;;;;;;3.70;1.33;;;10.20;99.90;;;;;;20651524;28;20517;-40
2022/12/20 10:59:15;;;;;;;3.10;1.83;;;10.20;99.90;;;;;;20655155;28;20100;-39
2022/12/20 11:09:26;;;;;;;5.30;2.42;;;10.20;99.90;;;;;;20645450;28;20042;-39
2022/12/20 11:20:03;;;;;;;4.20;1.50;;;10.30;99.90;;;;;;20681417;28;20438;-39
2022/12/20 11:30:04;;;;;;;4.05;2.03;;;10.40;99.90;;;;;;20663888;28;20874;-39
2022/12/20 11:40:15;;;;;;;2.65;1.85;;;10.30;99.90;;;;;;20654662;28;20568;-39
2022/12/20 11:50:46;;;;;;;2.28;0.80;;;10.30;99.90;;;;;;20656133;28;20080;-39
2022/12/20 12:00:56;;;;;;;2.83;1.77;;;10.30;99.90;;;;;;20656190;28;20089;-39
2022/12/20 12:11:13;;;;;;;3.17;1.67;;;10.30;99.90;;;;;;20646489;28;20152;-40
2022/12/20 12:21:35;;;;;;;4.20;2.47;;;10.30;99.90;;;;;;20667184;28;21858;-39
2022/12/20 12:31:50;;;;;;;5.13;1.85;;;10.30;99.90;;;;;;20668555;28;20085;-39
2022/12/20 12:41:51;;;;;;;4.40;2.00;;;10.30;99.90;;;;;;20670622;28;20057;-39
2022/12/20 12:51:56;;;;;;;4.65;2.80;;;10.40;99.90;;;;;;20658613;28;20036;-38
2022/12/20 13:02:13;;;;;;;4.97;2.90;;;10.30;99.90;;;;;;20644319;28;20151;-38
2022/12/20 13:12:36;;;;;;;6.03;3.17;;;10.30;99.90;;;;;;20641829;28;20296;-38
2022/12/20 13:22:37;;;;;;;4.03;2.45;;;10.40;99.90;;;;;;20653692;28;20069;-39
2022/12/20 13:32:47;;;;;;;3.72;1.88;;;10.40;99.90;;;;;;20651217;28;20030;-39
2022/12/20 13:42:53;;;;;;;3.50;2.63;;;10.30;99.90;;;;;;20642992;28;20520;-39
2022/12/20 13:52:54;;;;;;;4.70;3.55;;;10.30;99.90;;;;;;20660221;28;20069;-39
2022/12/20 14:02:55;;;;;;;5.75;2.28;;;10.30;99.90;;;;;;20663176;28;20069;-39
2022/12/20 14:12:57;;;;;;;4.90;2.42;;;10.30;99.90;;;;;;20654361;28;20125;-39
2022/12/20 14:23:10;;;;;;;4.53;2.50;;;10.30;99.90;;;;;;20654607;28;20061;-38
2022/12/20 14:33:29;;;;;;;4.65;2.67;;;10.30;99.90;;;;;;20657519;28;20804;-39
2022/12/20 14:43:34;;;;;;;5.78;2.95;;;10.30;99.90;;;;;;20652034;28;20258;-40
2022/12/20 14:53:36;;;;;;;5.70;3.47;;;10.30;99.90;;;;;;20675756;28;20073;-39
2022/12/20 15:03:51;;;;;;;4.45;2.80;;;10.30;99.90;;;;;;20662038;28;20542;-39
2022/12/20 15:13:55;;;;;;;8.07;3.50;;;10.40;99.90;;;;;;20671959;28;20034;-39
2022/12/20 15:23:58;;;;;;;5.47;3.80;;;10.30;99.90;;;;;;20687097;28;20045;-39
2022/12/20 15:34:02;;;;;;;5.68;3.75;;;10.30;99.90;;;;;;20652926;28;20084;-39
2022/12/20 15:44:16;;;;;;;8.55;3.83;;;10.20;99.90;;;;;;20659258;28;20634;-39
2022/12/20 15:54:29;;;;;;;6.72;3.63;;;10.20;99.90;;;;;;20640565;28;21937;-39
2022/12/20 16:04:30;;;;;;;5.95;3.47;;;10.20;99.90;;;;;;20651831;28;20126;-39
2022/12/20 16:14:31;;;;;;;14.00;4.47;;;10.20;99.90;;;;;;20655826;28;20054;-39
2022/12/20 16:24:32;;;;;;;9.27;4.93;;;10.10;99.90;;;;;;20653656;28;20517;-39
2022/12/20 16:34:33;;;;;;;5.35;3.33;;;10.10;99.90;;;;;;20652617;28;20389;-39
2022/12/20 16:44:34;;;;;;;7.75;3.85;;;10.00;99.90;;;;;;20662508;28;20505;-39
2022/12/20 16:54:35;;;;;;;9.80;5.72;;;10.00;99.90;;;;;;20661234;28;20057;-40
2022/12/20 17:04:36;;;;;;;8.43;4.30;;;10.00;99.90;;;;;;20650351;28;20050;-39
2022/12/20 17:14:37;;;;;;;8.48;4.38;;;10.00;99.90;;;;;;20642225;28;20072;-38
2022/12/20 17:24:38;;;;;;;6.75;3.28;;;10.00;99.90;;;;;;20644584;28;20469;-39
2022/12/20 17:34:39;;;;;;;6.45;4.30;;;9.90;99.90;;;;;;20661859;28;20131;-39
2022/12/20 17:44:41;;;;;;;5.93;3.58;;;9.90;99.90;;;;;;20664483;28;20046;-39
2022/12/20 17:54:42;;;;;;;12.52;6.72;;;9.90;99.90;;;;;;20657370;28;20180;-39
2022/12/20 18:04:43;;;;;;;8.85;5.47;;;9.90;99.90;;;;;;20661102;28;20077;-39
2022/12/20 18:14:51;;;;;;;7.88;5.50;;;9.90;99.90;;;;;;20650220;28;20053;-39
2022/12/20 18:24:52;;;;;;;7.07;4.53;;;9.80;99.90;;;;;;20656599;28;20093;-38
2022/12/20 18:34:53;;;;;;;12.73;6.93;;;9.80;99.90;;;;;;20651990;28;20081;-39
2022/12/20 18:44:57;;;;;;;11.43;6.93;;;9.80;99.90;;;;;;20655262;28;20132;-38
2022/12/20 18:54:58;;;;;;;10.68;6.47;;;9.80;99.90;;;;;;20656216;28;20168;-39
2022/12/20 19:04:59;;;;;;;15.93;8.18;;;9.70;99.90;;;;;;20656955;28;20133;-38
2022/12/20 19:15:00;;;;;;;9.85;6.80;;;9.80;99.90;;;;;;20659207;28;20030;-38
2022/12/20 19:25:01;;;;;;;8.05;5.80;;;9.70;99.90;;;;;;20652496;28;20161;-39
2022/12/20 19:35:02;;;;;;;16.55;9.57;;;9.80;99.90;;;;;;20642910;28;22025;-39
2022/12/20 19:45:03;;;;;;;13.48;8.43;;;9.80;99.90;;;;;;20652569;28;20384;-39
2022/12/20 19:55:05;;;;;;;16.27;9.55;;;9.70;99.90;;;;;;20645676;28;20133;-39
2022/12/20 20:05:06;;;;;;;11.65;9.43;;;9.70;99.90;;;;;;20649398;28;20902;-39
2022/12/20 20:15:07;;;;;;;17.83;11.27;;;9.80;99.90;;;;;;20653179;28;20505;-39
2022/12/20 20:25:09;;;;;;;16.40;10.00;;;9.70;99.90;;;;;;20642167;28;20208;-39
2022/12/20 20:35:10;;;;;;;13.05;8.68;;;9.70;99.90;;;;;;20655053;28;20081;-39
2022/12/20 20:45:11;;;;;;;11.57;6.90;;;9.60;99.90;;;;;;20648799;28;20133;-39
2022/12/20 20:55:12;;;;;;;31.58;14.90;;;9.60;99.90;;;;;;20653018;28;20584;-39
2022/12/20 21:05:13;;;;;;;21.17;13.30;;;9.60;99.90;;;;;;20652859;28;20157;-40
2022/12/20 21:15:14;;;;;;;16.52;9.90;;;9.50;99.90;;;;;;20656652;28;20199;-38
2022/12/20 21:25:16;;;;;;;18.88;11.15;;;9.50;99.90;;;;;;20684563;28;20456;-39
2022/12/20 21:35:17;;;;;;;17.90;11.18;;;9.50;99.90;;;;;;20694320;28;20046;-38
2022/12/20 21:45:18;;;;;;;20.90;9.57;;;9.40;99.90;;;;;;20675567;28;20054;-38
2022/12/20 21:55:19;;;;;;;12.88;8.02;;;9.30;99.90;;;;;;20671827;28;20049;-40
2022/12/20 22:05:20;;;;;;;15.05;9.23;;;9.30;99.90;;;;;;20661758;28;20131;-39
2022/12/20 22:15:21;;;;;;;13.50;7.72;;;9.30;99.90;;;;;;20689192;28;20038;-40
2022/12/20 22:25:22;;;;;;;12.15;8.00;;;9.20;99.90;;;;;;20682191;28;20050;-39
2022/12/20 22:35:23;;;;;;;12.32;7.72;;;9.10;99.90;;;;;;20681189;28;20058;-40
2022/12/20 22:45:25;;;;;;;11.30;8.05;;;9.10;99.90;;;;;;20669294;28;20243;-40
2022/12/20 22:55:26;;;;;;;12.38;6.80;;;8.90;99.90;;;;;;20663833;28;20565;-39
2022/12/20 23:05:27;;;;;;;8.43;5.57;;;8.90;99.90;;;;;;20662775;28;20470;-40
2022/12/20 23:15:39;;;;;;;14.48;7.35;;;8.90;99.90;;;;;;20665704;28;20466;-40
2022/12/20 23:25:42;;;;;;;9.80;5.93;;;8.90;99.90;;;;;;20663454;28;20081;-40
2022/12/20 23:35:43;;;;;;;10.75;4.97;;;8.80;99.90;;;;;;20659956;28;20121;-40
2022/12/20 23:45:44;;;;;;;10.25;6.32;;;8.80;99.90;;;;;;20670195;28;20366;-40
2022/12/20 23:55:56;;;;;;;8.82;4.53;;;8.70;99.90;;;;;;20660113;28;20122;-40
